createdAt,value
2019-01-04T06:22:17.224Z,16.53
2019-01-04T06:24:46.724Z,17.20
2019-01-04T06:27:15.829Z,17.10
2019-01-04T06:29:45.052Z,17.53
2019-01-04T06:32:14.528Z,16.30
2019-01-04T06:34:44.060Z,16.13
2019-01-04T06:37:13.230Z,16.13
2019-01-04T06:39:42.085Z,18.03
2019-01-04T06:42:10.885Z,17.70
2019-01-04T06:44:40.002Z,17.47
2019-01-04T06:47:16.740Z,16.23
2019-01-04T06:49:46.230Z,16.77
2019-01-04T06:52:15.221Z,16.47
2019-01-04T06:55:41.316Z,18.43
2019-01-04T06:58:10.104Z,17.03
2019-01-04T07:00:38.893Z,18.03
2019-01-04T07:03:08.221Z,16.73
2019-01-04T07:05:37.675Z,17.77
2019-01-04T07:08:06.465Z,16.43
2019-01-04T07:10:35.271Z,18.47
2019-01-04T07:13:04.214Z,19.47
2019-01-04T07:15:33.445Z,20.57
2019-01-04T07:18:02.295Z,19.30
2019-01-04T07:20:31.164Z,19.33
2019-01-04T07:23:00.321Z,20.50
2019-01-04T07:25:29.944Z,20.83
2019-01-04T07:27:59.025Z,21.93
2019-01-04T07:30:28.218Z,21.17
2019-01-04T07:32:57.342Z,23.50
2019-01-04T07:35:26.216Z,22.33
2019-01-04T07:37:55.277Z,23.00
2019-01-04T07:40:24.220Z,22.23
2019-01-04T07:42:53.242Z,23.13
2019-01-04T07:45:22.680Z,23.57
2019-01-04T07:47:51.576Z,23.83
2019-01-04T07:50:20.368Z,22.60
2019-01-04T07:52:49.452Z,23.50
2019-01-04T07:55:18.956Z,23.70
2019-01-04T07:57:47.811Z,20.10
2019-01-04T08:00:17.464Z,22.43
2019-01-04T08:02:57.689Z,21.80
2019-01-04T08:05:30.084Z,20.30
2019-01-04T08:08:00.428Z,19.80
2019-01-04T08:10:29.491Z,19.80
2019-01-04T08:12:58.353Z,21.40
2019-01-04T08:15:27.225Z,19.53
2019-01-04T08:17:56.530Z,20.33
2019-01-04T08:20:25.411Z,19.00
2019-01-04T08:22:54.508Z,21.33
2019-01-04T08:25:23.296Z,19.30
2019-01-04T08:27:52.080Z,17.10
2019-01-04T08:30:21.599Z,16.63
2019-01-04T08:32:50.469Z,16.93
2019-01-04T08:35:19.936Z,15.37
2019-01-04T08:37:48.809Z,16.37
2019-01-04T08:40:17.661Z,16.07
2019-01-04T08:42:46.448Z,14.97
2019-01-04T08:45:16.221Z,13.73
2019-01-04T08:47:45.018Z,13.40
2019-01-04T08:50:15.092Z,13.43
2019-01-04T08:52:44.100Z,13.63
2019-01-04T08:55:24.845Z,14.03
2019-01-04T08:57:53.922Z,13.37
2019-01-04T09:00:22.967Z,11.97
2019-01-04T09:02:52.625Z,11.73
2019-01-04T09:05:21.555Z,12.03
2019-01-04T09:07:50.405Z,12.27
2019-01-04T09:10:19.197Z,9.83
2019-01-04T09:12:48.745Z,11.13
2019-01-04T09:15:17.888Z,12.33
2019-01-04T09:17:47.044Z,11.93
2019-01-04T09:20:15.932Z,12.43
2019-01-04T09:22:45.949Z,13.07
2019-01-04T09:25:14.963Z,11.47
2019-01-04T09:27:44.097Z,13.00
2019-01-04T09:30:16.042Z,12.73
2019-01-04T09:32:44.821Z,13.53
2019-01-04T09:35:13.701Z,11.83
2019-01-04T09:37:42.777Z,12.87
2019-01-04T09:40:12.440Z,12.20
2019-01-04T09:42:43.997Z,11.93
2019-01-04T09:45:12.801Z,16.53
2019-01-04T09:47:41.936Z,12.00
2019-01-04T09:50:11.515Z,12.70
2019-01-04T09:52:40.813Z,11.30
2019-01-04T09:55:10.050Z,11.10
2019-01-04T09:57:38.924Z,12.50
2019-01-04T10:00:11.099Z,10.93
2019-01-04T10:02:39.879Z,11.13
2019-01-04T10:05:09.672Z,10.70
2019-01-04T10:07:38.537Z,11.20
2019-01-04T10:10:09.937Z,10.60
2019-01-04T10:12:39.910Z,10.43
2019-01-04T10:15:11.565Z,10.43
2019-01-04T10:17:40.680Z,10.90
2019-01-04T10:20:10.116Z,10.40
2019-01-04T10:22:38.980Z,9.57
2019-01-04T10:25:08.569Z,13.80
2019-01-04T10:27:42.094Z,12.40
2019-01-04T10:30:26.161Z,9.50
2019-01-04T10:32:55.021Z,10.57
2019-01-04T10:35:24.212Z,10.53
2019-01-04T10:37:53.052Z,10.10
2019-01-04T10:40:21.951Z,10.47
2019-01-04T10:42:50.741Z,10.10
2019-01-04T10:45:19.883Z,10.00
2019-01-04T10:47:48.744Z,10.83
2019-01-04T10:50:17.852Z,10.67
2019-01-04T10:52:46.783Z,14.00
2019-01-04T10:55:16.210Z,10.50
2019-01-04T10:57:45.437Z,9.40
2019-01-04T11:00:14.300Z,9.97
2019-01-04T11:02:43.549Z,9.47
2019-01-04T11:05:12.421Z,9.63
2019-01-04T11:07:41.615Z,9.57
2019-01-04T11:10:11.380Z,9.67
2019-01-04T11:12:40.457Z,8.60
2019-01-04T11:15:09.421Z,9.20
2019-01-04T11:17:38.264Z,8.53
2019-01-04T11:20:07.458Z,9.03
2019-01-04T11:22:55.820Z,8.67
2019-01-04T11:26:04.049Z,8.67
2019-01-04T11:29:20.348Z,7.33
2019-01-04T11:32:30.808Z,8.27
2019-01-04T11:35:36.609Z,8.33
2019-01-04T11:38:41.046Z,8.60
2019-01-04T11:41:47.366Z,8.37
2019-01-04T11:44:34.216Z,8.17
2019-01-04T11:47:20.109Z,8.10
2019-01-04T11:50:14.241Z,8.23
2019-01-04T11:52:50.385Z,8.30
2019-01-04T11:55:19.868Z,8.70
2019-01-04T11:57:48.723Z,9.57
2019-01-04T12:00:17.954Z,9.90
2019-01-04T12:02:46.824Z,9.03
2019-01-04T12:05:16.732Z,8.90
2019-01-04T12:07:45.564Z,9.50
2019-01-04T12:10:15.032Z,8.20
2019-01-04T12:12:43.860Z,9.47
2019-01-04T12:15:12.758Z,9.73
2019-01-04T12:17:41.622Z,8.67
2019-01-04T12:20:10.513Z,9.23
2019-01-04T12:22:39.327Z,10.00
2019-01-04T12:25:08.520Z,9.83
2019-01-04T12:27:37.674Z,10.33
2019-01-04T12:30:08.100Z,11.00
2019-01-04T12:32:37.040Z,10.50
2019-01-04T12:35:05.933Z,10.17
2019-01-04T12:37:35.184Z,10.90
2019-01-04T12:40:04.683Z,11.97
2019-01-04T12:42:33.592Z,10.97
2019-01-04T12:45:02.549Z,11.00
2019-01-04T12:47:31.965Z,11.30
2019-01-04T12:50:01.082Z,9.90
2019-01-04T12:52:29.894Z,10.07
2019-01-04T12:54:58.763Z,9.63
2019-01-04T12:57:27.740Z,9.13
2019-01-04T12:59:56.533Z,10.30
2019-01-04T13:02:25.614Z,10.10
2019-01-04T13:04:54.816Z,9.03
2019-01-04T13:07:23.764Z,10.23
2019-01-04T13:09:52.576Z,11.07
2019-01-04T13:12:21.437Z,9.17
2019-01-04T13:14:50.843Z,11.70
2019-01-04T13:17:19.656Z,10.17
2019-01-04T13:19:48.773Z,9.63
2019-01-04T13:22:17.744Z,9.57
2019-01-04T13:24:46.861Z,8.97
2019-01-04T13:27:15.807Z,7.23
2019-01-04T13:29:44.623Z,8.53
2019-01-04T13:32:13.552Z,9.80
2019-01-04T13:34:42.754Z,8.93
2019-01-04T13:37:11.711Z,8.80
2019-01-04T13:39:40.571Z,7.90
2019-01-04T13:42:09.524Z,8.47
2019-01-04T13:44:38.475Z,8.40
2019-01-04T13:47:08.809Z,7.90
2019-01-04T13:49:38.208Z,7.63
2019-01-04T13:52:08.016Z,8.53
2019-01-04T13:54:36.908Z,8.10
2019-01-04T13:57:06.008Z,8.40
2019-01-04T13:59:35.210Z,8.33
2019-01-04T14:02:04.177Z,7.63
2019-01-04T14:04:33.400Z,7.60
2019-01-04T14:07:02.296Z,9.00
2019-01-04T14:09:31.493Z,8.10
2019-01-04T14:12:00.996Z,8.57
2019-01-04T14:14:29.882Z,8.40
2019-01-04T14:16:59.473Z,9.03
2019-01-04T14:19:28.616Z,8.27
2019-01-04T14:21:57.881Z,8.50
2019-01-04T14:24:26.692Z,9.00
2019-01-04T14:26:55.880Z,9.93
2019-01-04T14:29:24.942Z,9.87
2019-01-04T14:31:53.887Z,9.70
2019-01-04T14:34:22.782Z,8.43
2019-01-04T14:36:51.964Z,7.20
2019-01-04T14:39:21.257Z,7.93
2019-01-04T14:41:52.941Z,7.37
2019-01-04T14:44:22.328Z,7.13
2019-01-04T14:46:51.476Z,7.30
2019-01-04T14:49:20.294Z,7.43
2019-01-04T14:51:49.155Z,7.83
2019-01-04T14:54:17.944Z,7.50
2019-01-04T14:56:47.680Z,7.60
2019-01-04T14:59:16.568Z,7.93
2019-01-04T15:01:45.660Z,8.00
2019-01-04T15:04:14.531Z,7.70
2019-01-04T15:06:43.727Z,8.90
2019-01-04T15:09:12.822Z,8.43
2019-01-04T15:11:41.655Z,9.03
2019-01-04T15:14:10.529Z,10.07
2019-01-04T15:16:39.323Z,9.27
2019-01-04T15:19:08.541Z,9.17
2019-01-04T15:21:38.097Z,9.67
2019-01-04T15:24:06.992Z,9.60
2019-01-04T15:26:36.177Z,10.15
2019-01-04T15:29:05.056Z,9.03
2019-01-04T15:31:34.775Z,7.87
2019-01-04T15:34:03.759Z,9.10
2019-01-04T15:36:32.987Z,8.47
2019-01-04T15:39:01.881Z,8.60
2019-01-04T15:41:30.765Z,7.97
2019-01-04T15:44:00.066Z,8.50
2019-01-04T15:46:29.285Z,7.37
2019-01-04T15:48:59.102Z,10.27
2019-01-04T15:51:28.262Z,9.97
2019-01-04T15:53:58.171Z,8.87
2019-01-04T15:56:27.719Z,8.77
2019-01-04T15:58:57.792Z,9.63
2019-01-04T16:01:26.683Z,8.87
2019-01-04T16:03:55.876Z,8.90
2019-01-04T16:06:24.852Z,8.43
2019-01-04T16:08:54.169Z,7.83
2019-01-04T16:11:23.027Z,8.33
2019-01-04T16:13:51.940Z,8.50
2019-01-04T16:16:21.025Z,7.13
2019-01-04T16:18:50.128Z,7.63
2019-01-04T16:21:19.423Z,6.37
2019-01-04T16:23:48.232Z,8.37
2019-01-04T16:26:17.146Z,7.40
2019-01-04T16:28:46.014Z,7.37
2019-01-04T16:31:15.560Z,7.43
2019-01-04T16:33:44.753Z,7.40
2019-01-04T16:36:14.004Z,12.13
2019-01-04T16:38:43.460Z,7.20
2019-01-04T16:41:12.332Z,6.30
2019-01-04T16:43:41.120Z,6.13
2019-01-04T16:46:10.276Z,6.33
2019-01-04T16:48:39.331Z,6.73
2019-01-04T16:51:08.375Z,6.70
2019-01-04T16:53:37.484Z,7.27
2019-01-04T16:56:06.474Z,7.50
2019-01-04T16:58:35.700Z,6.83
2019-01-04T17:01:04.889Z,6.40
2019-01-04T17:03:34.448Z,5.90
2019-01-04T17:06:03.319Z,7.00
2019-01-04T17:08:32.670Z,6.50
2019-01-04T17:11:02.072Z,7.07
2019-01-04T17:13:33.835Z,6.70
2019-01-04T17:16:03.140Z,5.80
2019-01-04T17:18:34.976Z,6.10
2019-01-04T17:21:03.768Z,6.50
2019-01-04T17:23:32.657Z,6.40
2019-01-04T17:26:01.428Z,6.20
2019-01-04T17:28:30.218Z,8.03
2019-01-04T17:30:59.496Z,7.87
2019-01-04T17:33:28.398Z,7.13
2019-01-04T17:35:59.331Z,6.90
2019-01-04T17:38:28.457Z,7.40
2019-01-04T17:40:57.903Z,10.53
2019-01-04T17:43:26.681Z,6.43
2019-01-04T17:45:56.441Z,7.07
2019-01-04T17:48:25.569Z,6.33
2019-01-04T17:50:54.648Z,6.47
2019-01-04T17:53:24.069Z,6.40
2019-01-04T17:55:52.933Z,5.93
2019-01-04T17:58:22.178Z,6.87
2019-01-04T18:00:51.264Z,5.90
2019-01-04T18:03:20.343Z,6.30
2019-01-04T18:05:49.657Z,6.00
2019-01-04T18:08:19.033Z,6.33
2019-01-04T18:10:47.845Z,6.03
2019-01-04T18:13:17.379Z,5.73
2019-01-04T18:15:46.252Z,6.03
2019-01-04T18:18:15.064Z,5.97
2019-01-04T18:20:44.216Z,5.40
2019-01-04T18:23:13.314Z,5.17
2019-01-04T18:25:43.038Z,5.23
2019-01-04T18:28:11.835Z,4.50
2019-01-04T18:30:41.004Z,4.83
2019-01-04T18:33:10.092Z,4.80
2019-01-04T18:35:39.288Z,4.73
2019-01-04T18:38:08.424Z,5.80
2019-01-04T18:40:37.896Z,5.20
2019-01-04T18:43:06.744Z,5.80
2019-01-04T18:45:35.516Z,5.27
2019-01-04T18:48:04.408Z,5.67
2019-01-04T18:50:33.866Z,6.00
2019-01-04T18:53:02.980Z,5.37
2019-01-04T18:55:32.659Z,6.67
2019-01-04T18:58:01.781Z,5.20
2019-01-04T19:00:31.060Z,5.80
2019-01-04T19:03:00.248Z,5.13
2019-01-04T19:05:29.091Z,5.60
2019-01-04T19:07:58.272Z,5.70
2019-01-04T19:10:27.437Z,6.13
2019-01-04T19:12:56.528Z,6.40
2019-01-04T19:15:25.481Z,6.53
2019-01-04T19:17:54.286Z,7.00
2019-01-04T19:20:24.208Z,6.90
2019-01-04T19:22:53.458Z,6.20
2019-01-04T19:25:22.390Z,6.87
2019-01-04T19:27:51.924Z,6.23
2019-01-04T19:30:21.204Z,6.63
2019-01-04T19:32:50.664Z,6.87
2019-01-04T19:35:19.481Z,7.20
2019-01-04T19:37:48.385Z,7.20
2019-01-04T19:40:17.352Z,7.20
2019-01-04T19:42:46.496Z,7.63
2019-01-04T19:45:15.279Z,8.00
2019-01-04T19:47:44.369Z,8.07
2019-01-04T19:50:20.110Z,7.97
2019-01-04T19:52:49.172Z,8.50
2019-01-04T19:55:18.617Z,8.93
2019-01-04T19:57:48.012Z,8.60
2019-01-04T20:00:17.353Z,9.40
2019-01-04T20:02:46.555Z,9.97
2019-01-04T20:05:21.670Z,10.00
2019-01-04T20:08:29.232Z,9.73
2019-01-04T20:11:59.884Z,10.13
2019-01-04T20:15:36.636Z,10.30
2019-01-04T20:18:33.000Z,11.70
2019-01-04T20:21:19.836Z,11.80
2019-01-04T20:24:16.969Z,11.40
2019-01-04T20:27:04.316Z,11.20
2019-01-04T20:29:49.883Z,11.73
2019-01-04T20:32:43.712Z,11.33
2019-01-04T20:35:38.440Z,10.90
2019-01-04T20:38:25.578Z,11.83
2019-01-04T20:41:22.452Z,12.47
2019-01-04T20:44:18.761Z,12.67
2019-01-04T20:47:05.449Z,12.00
2019-01-04T20:49:51.831Z,12.70
2019-01-04T20:52:46.128Z,12.37
2019-01-04T20:55:40.273Z,14.78
2019-01-04T20:58:23.840Z,11.70
2019-01-04T21:01:11.021Z,10.83
2019-01-04T21:04:11.637Z,11.63
2019-01-04T21:07:00.540Z,11.83
2019-01-04T21:10:06.988Z,11.23
2019-01-04T21:12:54.864Z,11.80
2019-01-04T21:15:51.367Z,11.77
2019-01-04T21:18:38.812Z,11.97
2019-01-04T21:21:23.469Z,12.33
2019-01-04T21:24:26.488Z,12.50
2019-01-04T21:27:13.074Z,12.57
2019-01-04T21:30:06.425Z,12.60
2019-01-04T21:32:53.229Z,13.00
2019-01-04T21:35:43.015Z,13.27
2019-01-04T21:38:29.965Z,14.30
2019-01-04T21:41:16.428Z,13.60
2019-01-04T21:44:03.355Z,13.63
2019-01-04T21:47:00.299Z,18.77
2019-01-04T21:49:48.545Z,13.67
2019-01-04T21:52:35.480Z,13.77
2019-01-04T21:55:19.600Z,14.77
2019-01-04T21:58:17.388Z,13.80
